createdAt,value
2022-12-14T00:01:29.760Z,92.40
2022-12-14T00:03:56.999Z,92.40
2022-12-14T00:06:26.695Z,92.40
2022-12-14T00:08:57.546Z,92.40
2022-12-14T00:11:24.572Z,92.40
2022-12-14T00:13:53.778Z,92.30
2022-12-14T00:16:21.369Z,92.30
2022-12-14T00:18:53.090Z,92.30
2022-12-14T00:21:21.143Z,92.30
2022-12-14T00:23:50.149Z,92.20
2022-12-14T00:26:20.000Z,92.00
2022-12-14T00:28:47.809Z,92.00
2022-12-14T00:31:15.162Z,92.00
2022-12-14T00:33:42.301Z,92.00
2022-12-14T00:36:11.444Z,92.10
2022-12-14T00:38:38.621Z,92.10
2022-12-14T00:41:05.742Z,92.10
2022-12-14T00:43:32.350Z,92.10
2022-12-14T00:45:59.066Z,92.20
2022-12-14T00:48:26.336Z,92.20
2022-12-14T00:50:54.665Z,92.20
2022-12-14T00:53:22.066Z,92.20
2022-12-14T00:55:49.903Z,92.10
2022-12-14T00:58:19.388Z,92.10
2022-12-14T01:00:47.237Z,92.10
2022-12-14T01:03:14.078Z,92.00
2022-12-14T01:05:41.215Z,92.00
2022-12-14T01:08:08.638Z,92.00
2022-12-14T01:10:39.555Z,92.00
2022-12-14T01:13:06.484Z,92.00
2022-12-14T01:15:35.645Z,92.00
2022-12-14T01:18:02.297Z,91.90
2022-12-14T01:20:28.959Z,92.00
2022-12-14T01:22:56.223Z,91.90
2022-12-14T01:25:22.910Z,91.90
2022-12-14T01:27:49.719Z,91.90
2022-12-14T01:30:18.202Z,91.70
2022-12-14T01:32:45.361Z,91.80
2022-12-14T01:35:12.106Z,91.80
2022-12-14T01:37:38.675Z,91.90
2022-12-14T01:40:05.929Z,91.80
2022-12-14T01:42:35.815Z,91.70
2022-12-14T01:45:02.933Z,91.60
2022-12-14T01:47:38.257Z,91.60
2022-12-14T01:50:27.938Z,91.70
2022-12-14T01:52:59.697Z,91.70
2022-12-14T01:55:35.312Z,91.70
2022-12-14T01:58:05.087Z,91.60
2022-12-14T02:00:31.810Z,91.60
2022-12-14T02:03:06.930Z,91.70
2022-12-14T02:05:37.418Z,91.60
2022-12-14T02:08:06.286Z,92.20
2022-12-14T02:10:33.620Z,91.60
2022-12-14T02:13:29.760Z,91.50
2022-12-14T02:15:56.723Z,91.50
2022-12-14T02:18:24.434Z,91.50
2022-12-14T02:21:15.473Z,91.30
2022-12-14T02:24:03.801Z,91.20
2022-12-14T02:26:54.971Z,91.10
2022-12-14T02:29:43.104Z,91.00
2022-12-14T02:32:26.959Z,90.80
2022-12-14T02:35:11.235Z,90.80
2022-12-14T02:37:38.110Z,90.70
2022-12-14T02:40:23.033Z,90.70
2022-12-14T02:43:13.684Z,90.60
2022-12-14T02:45:52.979Z,90.40
2022-12-14T02:48:26.621Z,90.30
2022-12-14T02:51:30.227Z,90.30
2022-12-14T02:54:04.259Z,90.40
2022-12-14T02:56:39.253Z,90.40
2022-12-14T02:59:08.644Z,90.20
2022-12-14T03:01:38.122Z,90.10
2022-12-14T03:04:06.065Z,90.10
2022-12-14T03:06:32.729Z,90.10
2022-12-14T03:09:08.611Z,90.00
2022-12-14T03:11:42.246Z,90.10
2022-12-14T03:14:17.009Z,90.00
2022-12-14T03:16:48.830Z,89.90
2022-12-14T03:19:42.380Z,89.90
2022-12-14T03:22:18.950Z,90.00
2022-12-14T03:24:54.788Z,90.00
2022-12-14T03:27:41.218Z,90.00
2022-12-14T03:30:18.398Z,90.10
2022-12-14T03:32:50.809Z,90.00
2022-12-14T03:35:31.830Z,89.90
2022-12-14T03:38:06.953Z,89.60
2022-12-14T03:40:59.929Z,89.60
2022-12-14T03:43:41.567Z,89.60
2022-12-14T03:46:55.746Z,89.60
2022-12-14T03:49:34.518Z,89.60
2022-12-14T03:52:21.358Z,89.60
2022-12-14T03:54:58.279Z,89.50
2022-12-14T03:57:49.657Z,89.60
2022-12-14T04:00:22.926Z,89.60
2022-12-14T04:03:24.558Z,89.60
2022-12-14T04:06:05.697Z,89.60
2022-12-14T04:08:44.199Z,89.60
2022-12-14T04:11:33.917Z,89.60
2022-12-14T04:14:54.338Z,89.60
2022-12-14T04:17:46.935Z,89.50
2022-12-14T04:20:19.973Z,89.50
2022-12-14T04:22:52.928Z,89.60
2022-12-14T04:25:44.014Z,89.70
2022-12-14T04:28:53.946Z,89.90
2022-12-14T04:31:23.964Z,90.20
2022-12-14T04:33:55.032Z,90.30
2022-12-14T04:36:28.259Z,90.40
2022-12-14T04:39:03.765Z,90.40
2022-12-14T04:41:36.433Z,90.40
2022-12-14T04:44:19.892Z,90.50
2022-12-14T04:46:48.256Z,90.70
2022-12-14T04:49:26.400Z,90.00
2022-12-14T04:52:05.958Z,90.80
2022-12-14T04:54:51.324Z,90.80
2022-12-14T04:57:22.154Z,90.80
2022-12-14T04:59:50.413Z,90.70
2022-12-14T05:02:39.815Z,90.80
2022-12-14T05:05:16.535Z,90.70
2022-12-14T05:08:17.534Z,90.70
2022-12-14T05:11:05.227Z,90.70
2022-12-14T05:13:49.008Z,90.60
2022-12-14T05:16:18.437Z,90.60
2022-12-14T05:18:45.623Z,90.40
2022-12-14T05:21:32.607Z,90.40
2022-12-14T05:24:01.560Z,90.50
2022-12-14T05:26:29.310Z,90.40
2022-12-14T05:28:56.766Z,90.40
2022-12-14T05:31:24.475Z,90.40
2022-12-14T05:33:51.154Z,90.40
2022-12-14T05:36:19.477Z,90.40
2022-12-14T05:38:46.563Z,90.40
2022-12-14T05:41:13.351Z,90.40
2022-12-14T05:43:39.859Z,90.50
2022-12-14T05:46:07.163Z,90.40
2022-12-14T05:48:35.019Z,90.40
2022-12-14T05:51:12.168Z,90.50
2022-12-14T05:53:40.054Z,90.50
2022-12-14T05:56:09.743Z,90.60
2022-12-14T05:58:37.189Z,90.50
2022-12-14T06:01:13.953Z,90.60
2022-12-14T06:03:43.814Z,90.60
2022-12-14T06:06:12.063Z,90.60
2022-12-14T06:08:41.397Z,90.70
2022-12-14T06:11:14.549Z,90.80
2022-12-14T06:13:41.764Z,90.80
2022-12-14T06:16:11.164Z,90.90
2022-12-14T06:18:43.707Z,91.00
2022-12-14T06:21:10.842Z,91.00
2022-12-14T06:23:37.508Z,91.10
2022-12-14T06:26:04.193Z,91.10
2022-12-14T06:28:30.819Z,91.10
2022-12-14T06:30:57.460Z,91.20
2022-12-14T06:33:24.316Z,91.30
2022-12-14T06:35:51.110Z,91.40
2022-12-14T06:38:17.956Z,91.50
2022-12-14T06:40:44.594Z,91.50
2022-12-14T06:43:11.694Z,91.50
2022-12-14T06:45:38.713Z,91.50
2022-12-14T06:48:05.954Z,91.60
2022-12-14T06:50:32.701Z,91.60
2022-12-14T06:52:59.280Z,91.50
2022-12-14T06:55:26.574Z,91.60
2022-12-14T06:57:54.368Z,91.60
2022-12-14T07:00:23.581Z,91.70
2022-12-14T07:02:51.088Z,91.70
2022-12-14T07:05:17.925Z,91.70
2022-12-14T07:07:44.655Z,91.70
2022-12-14T07:10:11.517Z,91.70
2022-12-14T07:12:38.749Z,91.60
2022-12-14T07:15:05.981Z,91.70
2022-12-14T07:17:35.444Z,91.80
2022-12-14T07:20:02.119Z,91.80
2022-12-14T07:22:28.715Z,91.80
2022-12-14T07:24:55.273Z,91.80
2022-12-14T07:27:23.880Z,91.90
2022-12-14T07:29:50.531Z,91.90
2022-12-14T07:32:17.169Z,91.90
2022-12-14T07:34:43.928Z,92.00
2022-12-14T07:37:10.456Z,92.00
2022-12-14T07:39:37.280Z,92.00
2022-12-14T07:42:03.880Z,92.00
2022-12-14T07:44:30.477Z,92.10
2022-12-14T07:46:57.193Z,92.00
2022-12-14T07:49:23.759Z,91.90
2022-12-14T07:51:50.543Z,91.80
2022-12-14T07:54:17.080Z,91.80
2022-12-14T07:56:44.015Z,91.80
2022-12-14T07:59:15.646Z,91.90
2022-12-14T08:01:43.605Z,91.90
2022-12-14T08:04:19.098Z,91.80
2022-12-14T08:06:47.159Z,91.80
2022-12-14T08:09:15.526Z,91.80
2022-12-14T08:11:42.208Z,91.70
2022-12-14T08:14:13.537Z,91.60
2022-12-14T08:16:40.147Z,91.80
2022-12-14T08:19:06.896Z,91.70
2022-12-14T08:21:33.497Z,91.70
2022-12-14T08:24:00.422Z,91.60
2022-12-14T08:26:34.992Z,91.80
2022-12-14T08:29:02.817Z,91.80
2022-12-14T08:31:29.851Z,91.70
2022-12-14T08:33:58.936Z,91.70
2022-12-14T08:36:29.484Z,91.70
2022-12-14T08:38:58.453Z,91.70
2022-12-14T08:41:26.549Z,91.70
2022-12-14T08:43:58.232Z,91.80
2022-12-14T08:46:27.029Z,91.80
2022-12-14T08:48:55.356Z,91.70
2022-12-14T08:51:23.287Z,91.40
2022-12-14T08:53:50.826Z,91.40
2022-12-14T08:56:20.048Z,90.90
2022-12-14T08:58:47.227Z,90.70
2022-12-14T09:01:20.879Z,90.70
2022-12-14T09:03:48.373Z,90.30
2022-12-14T09:06:24.207Z,90.20
2022-12-14T09:08:51.606Z,90.00
2022-12-14T09:11:19.680Z,89.80
2022-12-14T09:13:47.031Z,89.50
2022-12-14T09:16:19.943Z,89.30
2022-12-14T09:18:48.628Z,89.30
2022-12-14T09:21:15.607Z,89.30
2022-12-14T09:23:42.726Z,89.30
2022-12-14T09:26:13.488Z,89.20
2022-12-14T09:28:42.199Z,88.80
2022-12-14T09:31:12.368Z,88.10
2022-12-14T09:33:39.398Z,86.50
2022-12-14T09:36:12.446Z,87.10
2022-12-14T09:38:39.626Z,86.80
2022-12-14T09:41:19.687Z,86.80
2022-12-14T09:44:18.164Z,86.20
2022-12-14T09:46:54.600Z,86.20
2022-12-14T09:49:28.832Z,86.30
2022-12-14T09:52:07.249Z,85.70
2022-12-14T09:54:38.392Z,85.40
2022-12-14T09:57:13.971Z,85.40
2022-12-14T09:59:40.683Z,84.90
2022-12-14T10:02:30.512Z,84.40
2022-12-14T10:05:20.184Z,84.00
2022-12-14T10:07:53.338Z,83.00
2022-12-14T10:10:53.078Z,83.40
2022-12-14T10:13:35.098Z,83.20
2022-12-14T10:16:19.191Z,83.50
2022-12-14T10:19:00.944Z,83.90
2022-12-14T10:21:42.624Z,84.80
2022-12-14T10:24:15.867Z,84.00
2022-12-14T10:26:47.774Z,84.70
2022-12-14T10:29:33.249Z,84.40
2022-12-14T10:32:12.792Z,83.10
2022-12-14T10:34:41.475Z,83.10
2022-12-14T10:37:22.857Z,82.80
2022-12-14T10:40:15.759Z,82.70
2022-12-14T10:43:17.819Z,83.60
2022-12-14T10:45:49.450Z,83.40
2022-12-14T10:48:48.136Z,81.70
2022-12-14T10:51:33.692Z,81.40
2022-12-14T10:54:09.856Z,81.30
2022-12-14T10:56:41.763Z,81.20
2022-12-14T10:59:26.454Z,81.60
2022-12-14T11:02:03.965Z,82.10
2022-12-14T11:04:32.884Z,82.20
2022-12-14T11:07:02.359Z,82.30
2022-12-14T11:09:29.234Z,82.50
2022-12-14T11:12:03.592Z,82.00
2022-12-14T11:14:34.754Z,82.30
2022-12-14T11:17:01.685Z,82.20
2022-12-14T11:19:29.494Z,82.20
2022-12-14T11:22:11.117Z,81.80
2022-12-14T11:24:45.483Z,81.60
2022-12-14T11:27:14.722Z,81.60
2022-12-14T11:29:45.493Z,81.70
2022-12-14T11:32:19.020Z,81.30
2022-12-14T11:34:55.307Z,81.10
2022-12-14T11:37:27.933Z,80.50
2022-12-14T11:40:00.450Z,80.90
2022-12-14T11:42:28.268Z,80.40
2022-12-14T11:44:55.176Z,79.50
2022-12-14T11:47:26.530Z,77.60
2022-12-14T11:49:54.860Z,77.70
2022-12-14T11:52:25.046Z,78.30
2022-12-14T11:54:54.757Z,78.70
2022-12-14T11:57:32.938Z,78.90
2022-12-14T12:00:05.632Z,79.20
2022-12-14T12:02:37.690Z,79.10
2022-12-14T12:05:19.593Z,79.70
2022-12-14T12:07:49.192Z,79.80
2022-12-14T12:10:35.792Z,79.70
2022-12-14T12:13:07.169Z,78.70
2022-12-14T12:15:37.524Z,78.30
2022-12-14T12:18:29.547Z,78.20
2022-12-14T12:21:12.279Z,77.40
2022-12-14T12:23:57.626Z,77.10
2022-12-14T12:26:39.450Z,77.40
2022-12-14T12:29:34.805Z,76.30
2022-12-14T12:32:14.949Z,75.00
2022-12-14T12:35:12.363Z,74.50
2022-12-14T12:37:53.387Z,72.50
2022-12-14T12:40:30.692Z,72.80
2022-12-14T12:43:06.103Z,73.70
2022-12-14T12:45:51.405Z,72.20
2022-12-14T12:48:43.437Z,72.70
2022-12-14T12:51:12.477Z,73.00
2022-12-14T12:53:43.951Z,72.10
2022-12-14T12:56:17.288Z,72.70
2022-12-14T12:58:52.128Z,72.80
2022-12-14T13:01:37.545Z,71.50
2022-12-14T13:04:10.433Z,71.80
2022-12-14T13:06:50.127Z,72.40
2022-12-14T13:09:26.240Z,73.20
2022-12-14T13:11:53.282Z,73.70
2022-12-14T13:14:42.975Z,73.60
2022-12-14T13:17:33.641Z,73.50
2022-12-14T13:20:04.028Z,72.70
2022-12-14T13:22:32.879Z,72.30
2022-12-14T13:25:06.132Z,71.90
2022-12-14T13:27:57.107Z,72.10
2022-12-14T13:30:39.089Z,72.40
2022-12-14T13:33:45.663Z,72.60
2022-12-14T13:37:01.215Z,72.30
2022-12-14T13:39:57.207Z,72.70
2022-12-14T13:42:31.630Z,73.90
2022-12-14T13:45:04.288Z,75.10
2022-12-14T13:47:44.592Z,76.10
2022-12-14T13:50:37.333Z,76.60
2022-12-14T13:53:17.935Z,77.40
2022-12-14T13:55:56.153Z,78.10
2022-12-14T13:58:36.880Z,78.20
2022-12-14T14:01:13.462Z,78.50
2022-12-14T14:03:41.541Z,79.30
2022-12-14T14:06:36.003Z,79.70
2022-12-14T14:09:24.569Z,79.60
2022-12-14T14:12:28.310Z,79.70
2022-12-14T14:15:22.658Z,80.00
2022-12-14T14:17:54.070Z,80.10
2022-12-14T14:20:40.706Z,80.40
2022-12-14T14:23:16.518Z,80.60
2022-12-14T14:25:48.928Z,81.10
2022-12-14T14:28:22.411Z,81.50
2022-12-14T14:30:52.997Z,82.10
2022-12-14T14:33:45.587Z,82.70
2022-12-14T14:36:33.325Z,83.10
2022-12-14T14:39:31.193Z,83.40
2022-12-14T14:41:54.615Z,83.50
2022-12-14T14:44:51.990Z,83.60
2022-12-14T14:47:35.729Z,83.80
2022-12-14T14:50:07.415Z,84.00
2022-12-14T14:52:59.090Z,85.10
2022-12-14T14:58:36.396Z,84.60
2022-12-14T15:01:09.762Z,84.90
2022-12-14T15:03:48.827Z,85.20
2022-12-14T15:06:19.889Z,85.30
2022-12-14T15:09:15.127Z,85.20
2022-12-14T15:11:53.414Z,85.40
2022-12-14T15:14:35.373Z,85.50
2022-12-14T15:17:21.398Z,85.80
2022-12-14T15:19:49.678Z,85.70
2022-12-14T15:22:19.784Z,85.70
2022-12-14T15:24:50.888Z,85.60
2022-12-14T15:27:28.157Z,85.60
2022-12-14T15:30:17.957Z,85.50
2022-12-14T15:32:53.063Z,85.70
2022-12-14T15:35:27.369Z,86.10
2022-12-14T15:38:01.044Z,86.20
2022-12-14T15:40:32.479Z,86.00
2022-12-14T15:43:02.319Z,85.90
2022-12-14T15:45:40.819Z,86.00
2022-12-14T15:48:25.386Z,86.10
2022-12-14T15:51:04.012Z,85.90
2022-12-14T15:53:49.964Z,85.90
2022-12-14T15:56:29.168Z,86.00
2022-12-14T15:59:23.375Z,86.40
2022-12-14T16:02:16.745Z,86.30
2022-12-14T16:04:44.708Z,86.30
2022-12-14T16:07:21.020Z,86.30
2022-12-14T16:09:51.403Z,86.30
2022-12-14T16:12:39.566Z,86.30
2022-12-14T16:15:24.181Z,86.20
2022-12-14T16:17:59.283Z,86.20
2022-12-14T16:20:31.832Z,86.20
2022-12-14T16:23:06.799Z,86.20
2022-12-14T16:25:37.289Z,86.20
2022-12-14T16:28:28.794Z,86.20
2022-12-14T16:30:57.432Z,86.30
2022-12-14T16:33:24.987Z,86.40
2022-12-14T16:36:04.473Z,86.40
2022-12-14T16:38:32.845Z,86.50
2022-12-14T16:41:02.127Z,86.70
2022-12-14T16:43:35.297Z,86.70
2022-12-14T16:46:05.229Z,86.90
2022-12-14T16:48:35.178Z,86.80
2022-12-14T16:51:28.636Z,86.80
2022-12-14T16:54:20.988Z,87.00
2022-12-14T16:56:48.153Z,87.00
2022-12-14T16:59:26.965Z,87.20
2022-12-14T17:01:54.060Z,87.20
2022-12-14T17:04:21.249Z,87.20
2022-12-14T17:06:51.021Z,87.30
2022-12-14T17:09:20.962Z,87.30
2022-12-14T17:11:49.075Z,87.40
2022-12-14T17:14:17.628Z,87.50
2022-12-14T17:16:46.735Z,87.50
2022-12-14T17:19:26.617Z,87.60
2022-12-14T17:21:53.221Z,88.20
2022-12-14T17:24:22.070Z,87.60
2022-12-14T17:26:50.402Z,87.70
2022-12-14T17:29:28.682Z,87.70
2022-12-14T17:31:57.691Z,87.60
2022-12-14T17:34:24.935Z,87.60
2022-12-14T17:36:51.628Z,87.90
2022-12-14T17:39:18.225Z,88.20
2022-12-14T17:41:46.466Z,88.30
2022-12-14T17:44:15.242Z,88.20
2022-12-14T17:46:43.723Z,88.20
2022-12-14T17:49:12.837Z,88.20
2022-12-14T17:51:42.061Z,88.10
2022-12-14T17:54:17.530Z,88.10
2022-12-14T17:56:45.622Z,88.10
2022-12-14T17:59:13.165Z,88.10
2022-12-14T18:01:41.169Z,88.20
2022-12-14T18:04:08.572Z,88.20
2022-12-14T18:06:35.374Z,88.20
2022-12-14T18:09:02.065Z,88.20
2022-12-14T18:11:28.824Z,88.10
2022-12-14T18:13:55.698Z,88.20
2022-12-14T18:16:24.241Z,88.40
2022-12-14T18:18:53.995Z,88.30
2022-12-14T18:21:28.646Z,88.30
2022-12-14T18:23:56.553Z,88.30
2022-12-14T18:26:23.994Z,88.20
2022-12-14T18:28:53.617Z,88.20
2022-12-14T18:31:23.347Z,88.20
2022-12-14T18:33:50.557Z,88.30
2022-12-14T18:36:19.761Z,88.20
2022-12-14T18:38:49.532Z,88.30
2022-12-14T18:41:19.157Z,88.20
2022-12-14T18:43:46.218Z,89.00
2022-12-14T18:46:12.935Z,88.20
2022-12-14T18:48:40.506Z,88.30
2022-12-14T18:51:10.762Z,88.40
2022-12-14T18:53:37.793Z,88.40
2022-12-14T18:56:08.674Z,88.60
2022-12-14T18:58:35.698Z,88.60
2022-12-14T19:01:02.894Z,88.60
2022-12-14T19:03:32.298Z,88.50
2022-12-14T19:06:42.337Z,89.40
2022-12-14T19:08:56.922Z,88.60
2022-12-14T19:11:31.627Z,88.60
2022-12-14T19:13:59.778Z,88.60
2022-12-14T19:16:26.628Z,88.60
2022-12-14T19:18:53.370Z,88.60
2022-12-14T19:21:20.334Z,88.60
2022-12-14T19:23:47.108Z,88.80
2022-12-14T19:26:13.763Z,88.80
2022-12-14T19:28:40.441Z,88.80
2022-12-14T19:31:10.368Z,88.80
2022-12-14T19:33:37.194Z,88.80
2022-12-14T19:36:07.810Z,88.80
2022-12-14T19:38:35.261Z,88.70
2022-12-14T19:41:05.913Z,88.70
2022-12-14T19:43:33.176Z,88.70
2022-12-14T19:46:00.254Z,88.80
2022-12-14T19:48:26.923Z,88.80
2022-12-14T19:50:53.651Z,89.60
2022-12-14T19:53:23.709Z,88.90
2022-12-14T19:55:54.008Z,88.80
2022-12-14T19:58:23.077Z,88.80
2022-12-14T20:00:50.281Z,88.70
2022-12-14T20:03:17.151Z,88.80
2022-12-14T20:05:56.200Z,88.60
2022-12-14T20:08:23.286Z,88.70
2022-12-14T20:10:52.425Z,88.70
2022-12-14T20:13:20.011Z,88.60
2022-12-14T20:15:54.768Z,88.70
2022-12-14T20:18:22.660Z,88.70
2022-12-14T20:20:50.179Z,88.70
2022-12-14T20:23:18.389Z,88.60
2022-12-14T20:25:45.353Z,88.60
2022-12-14T20:28:11.975Z,88.60
2022-12-14T20:30:44.010Z,88.60
2022-12-14T20:33:10.655Z,88.60
2022-12-14T20:35:37.400Z,88.70
2022-12-14T20:38:04.021Z,88.60
2022-12-14T20:40:38.014Z,88.60
2022-12-14T20:43:05.322Z,88.60
2022-12-14T20:45:31.941Z,88.60
2022-12-14T20:47:58.623Z,88.60
2022-12-14T20:50:25.231Z,88.40
2022-12-14T20:52:51.805Z,88.40
2022-12-14T20:55:18.401Z,88.40
2022-12-14T20:57:44.985Z,88.40
2022-12-14T21:00:12.413Z,88.30
2022-12-14T21:02:39.368Z,88.40
2022-12-14T21:05:06.668Z,88.40
2022-12-14T21:07:33.482Z,88.50
2022-12-14T21:10:00.095Z,88.40
2022-12-14T21:12:26.871Z,88.40
2022-12-14T21:14:55.573Z,88.30
2022-12-14T21:17:24.986Z,88.40
2022-12-14T21:19:52.180Z,88.40
2022-12-14T21:22:21.585Z,88.20
2022-12-14T21:25:05.595Z,88.10
2022-12-14T21:27:34.725Z,88.10
2022-12-14T21:30:01.918Z,88.00
2022-12-14T21:32:28.907Z,87.90
2022-12-14T21:34:55.737Z,87.80
2022-12-14T21:37:22.897Z,87.80
2022-12-14T21:39:54.926Z,88.50
2022-12-14T21:42:25.852Z,87.70
2022-12-14T21:44:53.984Z,87.80
2022-12-14T21:47:24.076Z,87.70
2022-12-14T21:49:50.780Z,88.40
2022-12-14T21:52:19.422Z,87.70
2022-12-14T21:54:46.290Z,87.70
2022-12-14T21:57:32.363Z,87.60
2022-12-14T21:59:59.191Z,87.70
2022-12-14T22:02:26.178Z,87.60
2022-12-14T22:04:56.204Z,87.60
2022-12-14T22:07:30.829Z,87.40
2022-12-14T22:09:57.913Z,87.70
2022-12-14T22:12:24.596Z,87.60
2022-12-14T22:14:51.404Z,87.60
2022-12-14T22:17:18.266Z,87.60
2022-12-14T22:19:44.866Z,87.70
2022-12-14T22:22:16.296Z,87.50
2022-12-14T22:24:43.879Z,87.50
2022-12-14T22:27:12.074Z,87.40
2022-12-14T22:29:41.660Z,87.40
2022-12-14T22:32:10.677Z,87.40
2022-12-14T22:34:37.376Z,87.40
2022-12-14T22:37:04.076Z,87.50
2022-12-14T22:39:30.880Z,87.50
2022-12-14T22:41:57.512Z,87.50
2022-12-14T22:44:24.142Z,87.50
2022-12-14T22:46:50.830Z,87.40
2022-12-14T22:49:19.265Z,87.40
2022-12-14T22:51:46.419Z,87.50
2022-12-14T22:54:21.734Z,87.40
2022-12-14T22:56:59.154Z,87.30
2022-12-14T22:59:34.089Z,87.30
2022-12-14T23:02:00.843Z,87.20
2022-12-14T23:04:27.634Z,87.20
2022-12-14T23:06:55.002Z,87.30
2022-12-14T23:09:40.565Z,87.30
2022-12-14T23:12:25.966Z,87.30
2022-12-14T23:15:11.323Z,87.30
2022-12-14T23:17:56.889Z,87.30
2022-12-14T23:20:42.293Z,87.30
2022-12-14T23:23:28.059Z,87.30
2022-12-14T23:26:13.354Z,87.30
2022-12-14T23:28:59.267Z,87.20
2022-12-14T23:31:44.268Z,87.30
2022-12-14T23:34:29.672Z,87.40
2022-12-14T23:37:20.043Z,87.40
2022-12-14T23:40:06.315Z,87.50
2022-12-14T23:42:51.835Z,87.40
2022-12-14T23:45:37.146Z,87.30
2022-12-14T23:48:22.652Z,87.20
2022-12-14T23:51:07.955Z,87.10
2022-12-14T23:53:53.401Z,87.10
2022-12-14T23:56:38.866Z,87.20
2022-12-14T23:59:29.728Z,87.20
